Latest Weather Observations for Williamson

IDQ60801

Issued at 3:35 pm EST Friday 1 August 2014 (issued every 30 minutes, with the page automatically refreshed every 10 minutes)

About weather observations | Map of weather stations | Latest weather observations for QLD | Other Formats
Station Details ID: 033195 Name: WILLIAMSON Lat: -22.47 Lon: 150.18 Height: 27.6 m
Data from the previous 72 hours. | See also: Recent months at Williamson
Date/Time
EST
Temp
°C
App
Temp
°C
Dew
Point
Rel
Hum
%
Delta-T
°C
Wind Press
QNH
hPa
Press
MSL
hPa
Rain
since 9 am
mm
Dir
 
Spd
km/h
Gust
km/h
Spd
kts
Gust
kts
01/03:30pm 23.3 23.3 17.1 68 3.8 NE 13 17 7 9 1015.1 - 0.0
01/03:00pm 22.9 23.3 16.4 67 4.0 NNE 9 15 5 8 1015.3 1015.2 0.0
01/02:30pm 23.0 22.3 16.3 66 4.1 N 15 24 8 13 1015.6 - 0.0
01/02:00pm 24.5 24.0 17.0 63 4.6 NNE 15 22 8 12 1015.8 - 0.0
01/01:30pm 24.9 24.5 17.1 62 4.8 NNE 15 24 8 13 1016.1 - 0.0
01/01:00pm 23.8 23.6 16.6 64 4.4 N 13 22 7 12 1016.5 - 0.0
01/12:30pm 24.6 24.0 16.6 61 4.9 N 15 26 8 14 1016.9 - 0.0
01/12:00pm 24.2 24.2 16.2 61 4.9 N 11 20 6 11 1017.5 1017.4 0.0
01/11:30am 25.6 25.5 15.9 55 5.9 NNW 11 24 6 13 1018.0 - 0.0
01/11:00am 24.2 24.2 16.2 61 4.9 NW 11 19 6 10 1018.5 - 0.0
01/10:30am 23.0 22.9 16.1 65 4.2 NW 11 19 6 10 1018.9 - 0.0
01/10:00am 23.3 24.5 16.8 67 4.0 NNE 6 13 3 7 1019.1 - 0.0
01/09:30am 21.5 23.6 17.3 77 2.6 WSW 2 6 1 3 1019.3 - 0.0
01/09:00am 20.2 21.7 16.6 80 2.2 WSW 4 7 2 4 1019.2 1019.2 0.0
01/08:30am 18.9 19.9 16.3 85 1.6 SSW 6 7 3 4 1019.0 - 0.0
01/08:00am 17.4 19.2 15.4 88 1.2 CALM 0 0 0 0 1018.7 - 0.0
01/07:30am 16.2 17.9 15.2 94 0.6 CALM 0 0 0 0 1018.3 - 0.0
01/07:00am 15.4 17.1 15.1 98 0.2 CALM 0 0 0 0 1018.2 - 0.0
01/06:30am 15.1 16.7 14.8 98 0.2 CALM 0 0 0 0 1017.9 - 0.0
01/06:00am 14.9 16.4 14.6 98 0.2 SW 0 0 0 0 1017.7 1017.6 0.0
01/05:30am 14.7 16.1 14.4 98 0.2 CALM 0 0 0 0 1017.5 - 0.0
01/05:00am 14.3 15.6 14.0 98 0.2 CALM 0 0 0 0 1017.4 - 0.0
01/04:30am 14.2 15.4 13.9 98 0.2 CALM 0 0 0 0 1017.4 - 0.0
01/04:00am 14.2 15.4 13.9 98 0.2 CALM 0 0 0 0 1017.4 - 0.0
01/03:30am 14.0 15.2 13.7 98 0.2 CALM 0 0 0 0 1017.4 - 0.0
01/03:00am 13.4 14.4 13.1 98 0.2 CALM 0 0 0 0 1017.5 1017.4 0.0
01/02:30am 13.0 13.8 12.4 96 0.3 CALM 0 0 0 0 1017.6 - 0.0
01/02:00am 13.5 14.3 12.6 94 0.5 CALM 0 0 0 0 1018.0 - 0.0
01/01:30am 14.2 15.3 13.4 95 0.4 CALM 0 0 0 0 1018.0 - 0.0
01/01:00am 14.7 15.9 13.7 94 0.6 CALM 0 0 0 0 1018.2 - 0.0
01/12:30am 15.5 17.0 14.7 95 0.5 CALM 0 0 0 0 1018.4 - 0.0
01/12:00am 15.7 17.3 14.9 95 0.5 SE 0 0 0 0 1018.6 1018.6 0.0
 
Date/Time
EST
Temp
°C
App
Temp
°C
Dew
Point
Rel
Hum
%
Delta-T
°C
Wind Press
QNH
hPa
Press
MSL
hPa
Rain
since 9 am
mm
Dir
 
Spd
km/h
Gust
km/h
Spd
kts
Gust
kts
31/11:30pm 15.5 16.9 14.4 93 0.6 CALM 0 0 0 0 1018.5 - 0.0
31/11:00pm 16.2 17.8 14.9 92 0.7 CALM 0 0 0 0 1018.5 - 0.0
31/10:30pm 16.9 18.7 15.6 92 0.8 CALM 0 0 0 0 1018.5 - 0.0
31/10:00pm 17.2 18.6 15.5 90 1.0 NE 2 6 1 3 1018.6 - 0.0
31/09:30pm 17.7 19.7 15.9 89 1.1 CALM 0 0 0 0 1018.6 - 0.0
31/09:00pm 18.0 20.0 16.0 88 1.2 CALM 0 0 0 0 1018.7 1018.7 0.0
31/08:30pm 18.7 20.7 16.1 85 1.5 CALM 0 0 0 0 1018.6 - 0.0
31/08:00pm 19.2 20.1 16.6 85 1.6 ENE 7 13 4 7 1018.5 - 0.0
31/07:30pm 19.0 20.0 16.4 85 1.6 E 6 9 3 5 1018.4 - 0.0
31/07:00pm 19.5 20.3 16.3 82 1.9 NE 7 13 4 7 1018.2 - 0.0
31/06:30pm 20.0 20.1 15.6 76 2.6 NNE 9 15 5 8 1018.0 - 0.0
31/06:00pm 20.4 20.8 16.2 77 2.5 NE 9 13 5 7 1017.9 1017.8 0.0
31/05:30pm 21.1 21.6 15.6 71 3.3 NNE 7 13 4 7 1017.7 - 0.0
31/05:00pm 21.7 21.2 14.8 65 4.1 NNE 11 19 6 10 1017.7 - 0.0
31/04:30pm 23.0 22.0 13.5 55 5.5 NNE 11 19 6 10 1017.4 - 0.0
31/04:00pm 23.0 22.3 13.2 54 5.7 NNE 9 17 5 9 1017.3 - 0.0
31/03:30pm 23.6 22.1 13.2 52 6.0 NNE 13 20 7 11 1017.1 - 0.0
31/03:00pm 23.3 24.3 14.3 57 5.3 ESE 2 7 1 4 1017.2 1017.1 0.0
31/02:30pm 23.4 23.1 15.5 61 4.7 SSW 11 15 6 8 1017.4 - 0.0
31/02:00pm 22.6 22.1 15.0 62 4.5 SW 11 15 6 8 1017.8 - 0.0
31/01:30pm 22.2 21.5 15.3 65 4.1 SSW 13 17 7 9 1018.2 - 0.0
31/01:00pm 22.6 22.6 15.2 63 4.4 N 9 15 5 8 1018.6 - 0.0
31/12:30pm 21.7 22.4 15.5 68 3.7 S 6 7 3 4 1019.3 - 0.0
31/12:00pm 20.8 20.7 16.0 74 2.9 S 11 15 6 8 1019.8 1019.8 0.0
31/11:30am 20.7 21.3 15.7 73 3.0 SE 7 11 4 6 1020.3 - 0.0
31/11:00am 22.7 22.1 13.5 56 5.3 ENE 9 15 5 8 1020.5 - 0.0
31/10:30am 23.4 23.2 13.6 54 5.7 ESE 7 15 4 8 1020.9 - 0.0
31/10:00am 22.1 22.7 15.7 67 3.8 WNW 7 11 4 6 1021.0 - 0.0
31/09:30am 20.6 21.1 15.6 73 3.0 SW 7 11 4 6 1021.1 - 0.0
31/09:00am 19.5 20.6 15.6 78 2.3 S 4 7 2 4 1021.3 1021.3 0.0
31/08:30am 16.3 17.1 14.8 91 0.9 S 4 9 2 5 1021.3 - 0.0
31/08:00am 13.3 12.9 13.0 98 0.2 SSE 7 11 4 6 1021.0 - 0.0
31/07:30am 12.0 11.2 11.7 98 0.2 S 7 11 4 6 1021.0 - 0.0
31/07:00am 9.2 9.0 8.9 98 0.1 CALM 0 0 0 0 1020.9 - 0.0
31/06:30am 9.5 9.0 9.2 98 0.1 SSE 2 6 1 3 1020.6 - 0.0
31/06:00am 9.0 8.7 8.7 98 0.1 CALM 0 0 0 0 1020.3 1020.3 0.0
31/05:30am 9.4 9.2 9.1 98 0.1 CALM 0 0 0 0 1020.2 - 0.0
31/05:00am 9.4 9.2 9.1 98 0.1 CALM 0 0 0 0 1020.0 - 0.0
31/04:30am 9.3 9.1 9.0 98 0.1 CALM 0 0 0 0 1020.0 - 0.0
31/04:00am 9.3 9.1 9.0 98 0.1 CALM 0 0 0 0 1019.9 - 0.0
31/03:30am 9.2 9.0 8.9 98 0.1 CALM 0 0 0 0 1020.0 - 0.0
31/03:00am 9.6 9.5 9.3 98 0.1 CALM 0 6 0 3 1019.9 1019.9 0.0
31/02:30am 9.7 9.6 9.4 98 0.1 CALM 0 0 0 0 1020.0 - 0.0
31/02:00am 9.8 9.7 9.3 97 0.2 CALM 0 0 0 0 1020.3 - 0.0
31/01:30am 10.2 10.2 9.7 97 0.3 CALM 0 0 0 0 1020.6 - 0.0
31/01:00am 10.6 10.7 10.1 97 0.3 CALM 0 0 0 0 1020.7 - 0.0
31/12:30am 10.9 11.1 10.4 97 0.3 CALM 0 0 0 0 1020.8 - 0.0
31/12:00am 10.8 10.9 10.3 97 0.3 CALM 0 0 0 0 1020.9 1020.9 0.0
 
Date/Time
EST
Temp
°C
App
Temp
°C
Dew
Point
Rel
Hum
%
Delta-T
°C
Wind Press
QNH
hPa
Press
MSL
hPa
Rain
since 9 am
mm
Dir
 
Spd
km/h
Gust
km/h
Spd
kts
Gust
kts
30/11:30pm 11.6 11.9 10.8 95 0.4 CALM 0 0 0 0 1021.0 - 0.0
30/11:00pm 11.9 12.3 11.4 97 0.3 CALM 0 0 0 0 1021.2 - 0.0
30/10:30pm 12.3 12.7 11.4 94 0.5 CALM 0 0 0 0 1021.0 - 0.0
30/10:00pm 12.9 13.6 12.3 96 0.3 CALM 0 0 0 0 1021.2 - 0.0
30/09:30pm 13.2 13.9 12.1 93 0.6 CALM 0 0 0 0 1021.2 - 0.0
30/09:00pm 13.7 14.4 12.1 90 0.9 CALM 0 0 0 0 1021.1 1021.1 0.0
30/08:30pm 14.6 14.3 12.8 89 1.0 ENE 6 9 3 5 1021.0 - 0.0
30/08:00pm 15.7 16.4 13.4 86 1.3 E 2 6 1 3 1020.7 - 0.0
30/07:30pm 17.5 17.7 14.6 83 1.7 ENE 7 9 4 5 1020.5 - 0.0
30/07:00pm 17.9 18.2 14.4 80 2.0 NE 6 11 3 6 1020.2 - 0.0
30/06:30pm 18.4 18.4 14.1 76 2.5 NNE 7 13 4 7 1020.0 - 0.0
30/06:00pm 19.2 18.9 13.2 68 3.4 ENE 7 11 4 6 1020.0 1020.0 0.0
30/05:30pm 20.7 19.6 12.1 58 4.8 NE 9 15 5 8 1019.6 - 0.0
30/05:00pm 21.9 19.7 10.7 49 6.2 NNE 13 22 7 12 1019.6 - 0.0
30/04:30pm 23.0 20.9 9.8 43 7.2 N 11 20 6 11 1019.4 - 0.0
30/04:00pm 24.1 21.3 8.5 37 8.3 NNE 13 20 7 11 1019.1 - 0.0
30/03:30pm 24.7 20.9 7.4 33 9.1 N 17 24 9 13 1018.9 - 0.0
30/03:00pm 24.9 22.2 7.5 33 9.2 E 11 20 6 11 1018.8 1018.8 0.0
30/02:30pm 24.9 22.4 8.0 34 9.0 NNE 11 19 6 10 1019.3 - 0.0
30/02:00pm 24.1 22.0 8.1 36 8.5 ESE 9 17 5 9 1020.0 - 0.0
30/01:30pm 24.3 22.4 7.4 34 8.9 N 7 13 4 7 1020.4 - 0.0
30/01:00pm 24.2 22.4 7.8 35 8.7 NNE 7 13 4 7 1020.8 - 0.0
30/12:30pm 23.9 21.9 7.1 34 8.8 NNE 7 15 4 8 1021.5 - 0.0
30/12:00pm 23.5 21.7 8.0 37 8.2 E 7 13 4 7 1022.1 1022.1 0.0
30/11:30am 24.2 21.8 6.9 33 9.0 NNE 9 17 5 9 1022.5 - 0.0
30/11:00am 24.0 21.5 8.0 36 8.5 ESE 11 20 6 11 1022.9 - 0.0
30/10:30am 24.0 21.8 8.0 36 8.5 ESE 9 17 5 9 1023.1 - 0.0
30/10:00am 22.7 21.3 8.8 41 7.4 SSW 6 15 3 8 1023.4 - 0.0
30/09:30am 21.6 20.7 11.3 52 5.7 WSW 7 11 4 6 1023.8 - 0.0
30/09:00am 19.4 18.8 12.2 63 4.0 SSW 7 11 4 6 1023.8 1023.8 0.0
30/08:30am 17.1 16.3 11.8 71 2.9 S 7 9 4 5 1023.9 - 0.0
30/08:00am 13.4 14.1 12.3 93 0.6 CALM 0 0 0 0 1023.6 - 0.0
30/07:30am 8.9 8.6 8.6 98 0.1 CALM 0 0 0 0 1023.4 - 0.0
30/07:00am 6.5 5.6 6.2 98 0.1 CALM 0 0 0 0 1023.0 - 0.0
30/06:30am 6.5 5.6 6.2 98 0.1 CALM 0 0 0 0 1022.7 - 0.0
30/06:00am 6.6 5.8 6.3 98 0.1 CALM 0 0 0 0 1022.3 1022.3 0.0
30/05:30am 6.9 6.1 6.6 98 0.1 CALM 0 0 0 0 1021.9 - 0.0
30/05:00am 6.9 6.1 6.6 98 0.1 CALM 0 0 0 0 1021.5 - 0.0
30/04:30am 7.1 6.4 6.8 98 0.1 CALM 0 0 0 0 1021.5 - 0.0
30/04:00am 7.2 6.1 6.9 98 0.1 SSW 2 7 1 4 1021.5 - 0.0
30/03:30am 7.4 6.7 7.1 98 0.1 CALM 0 0 0 0 1021.4 - 0.0
30/03:00am 7.5 6.8 7.1 97 0.2 CALM 0 0 0 0 1021.5 1021.5 0.0
30/02:30am 7.8 7.2 7.5 98 0.1 CALM 0 0 0 0 1021.8 - 0.0
30/02:00am 8.0 7.4 7.6 97 0.2 CALM 0 0 0 0 1021.7 - 0.0
30/01:30am 8.2 7.7 7.8 97 0.2 CALM 0 0 0 0 1021.8 - 0.0
30/01:00am 8.5 8.0 7.9 96 0.3 CALM 0 0 0 0 1021.9 - 0.0
30/12:30am 8.8 8.4 8.4 97 0.2 CALM 0 0 0 0 1022.1 - 0.0
30/12:00am 9.1 8.8 8.5 96 0.3 CALM 0 0 0 0 1022.1 1022.1 0.0
 
Date/Time
EST
Temp
°C
App
Temp
°C
Dew
Point
Rel
Hum
%
Delta-T
°C
Wind Press
QNH
hPa
Press
MSL
hPa
Rain
since 9 am
mm
Dir
 
Spd
km/h
Gust
km/h
Spd
kts
Gust
kts
29/11:30pm 9.5 9.2 8.7 95 0.4 CALM 0 0 0 0 1022.2 - 0.0
29/11:00pm 9.9 9.8 9.3 96 0.3 CALM 0 6 0 3 1022.2 - 0.0
29/10:30pm 10.5 10.5 9.7 95 0.4 CALM 0 0 0 0 1022.2 - 0.0
29/10:00pm 10.9 10.8 9.5 91 0.7 CALM 0 0 0 0 1022.3 - 0.0
29/09:30pm 11.2 10.1 10.1 93 0.6 NE 6 7 3 4 1022.2 - 0.0
29/09:00pm 11.8 10.7 10.7 93 0.6 ENE 7 7 4 4 1022.2 1022.2 0.0
29/08:30pm 12.2 12.4 10.6 90 0.8 CALM 0 0 0 0 1022.0 - 0.0
29/08:00pm 13.1 12.6 10.8 86 1.2 E 4 6 2 3 1022.1 - 0.0
29/07:30pm 14.1 14.5 11.3 83 1.5 CALM 0 0 0 0 1021.8 - 0.0
29/07:00pm 15.1 15.6 11.5 79 1.9 CALM 0 4 0 2 1021.4 - 0.0
29/06:30pm 16.3 16.7 11.2 72 2.7 CALM 0 0 0 0 1021.2 - 0.0
29/06:00pm 17.9 17.1 11.0 64 3.7 NNE 6 7 3 4 1020.8 1020.8 0.0
29/05:30pm 20.2 19.1 10.6 54 5.2 NE 7 17 4 9 1020.6 - 0.0
29/05:00pm 21.6 20.2 9.5 46 6.5 NE 7 13 4 7 1020.2 - 0.0
29/04:30pm 22.1 19.8 10.3 47 6.4 ENE 13 24 7 13 1020.0 - 0.0
29/04:00pm 22.8 20.7 11.2 48 6.5 NE 13 24 7 13 1019.7 - 0.0

Other Formats:

Comma delimited format used in spreadsheet applications
http://www.bom.gov.au/fwo/IDQ60801/IDQ60801.95370.axf

JavaScript Object Notation format (JSON) in row-major order
http://www.bom.gov.au/fwo/IDQ60801/IDQ60801.95370.json